Asbury Park, New Jersey
Current Conditions -  °F | °C
As of 3:15 AM on Tuesday 21 Oct 2014 (Local Time) from KBLM Reporting Station
Clear Clear  
Wind Chill: 52°   Ceiling: Unl
Heat Index: 52°   Visibility: 10mi
Dew Point: 43°   Wind: 5mph
Humidity: 71%   Direction: 190°S
Pressure: 29.91"   Gusts: NA
Location:  40.22°N, 74.01°W
Report Text: KBLM 210715Z AUTO 19004KT 10SM CLR 11/06 A2991 RMK AO1
Loading
Personal Weather Stations






























Interactive Weather Map
Tropical Storm Tracking
New forecast layout! Learn more

10-Day Weather Forecast

Advertisements
Track Severe Weather on mobile